Time;durP1;ratioP1;P1;durP2;ratioP2;P2;SDS_P1;SDS_P2;PMS_P1;PMS_P2;Temp;Humidity;BMP_temperature;BMP_pressure;BME280_temperature;BME280_humidity;BME280_pressure;Samples;Min_cycle;Max_cycle;Signal;HPM_P1;HPM_P2
2021/01/29 00:01:28;;;;;;;1.20;0.63;;;21.60;40.30;;;;;;5079591;28;20057;-51
2021/01/29 00:03:53;;;;;;;1.65;0.77;;;21.60;40.30;;;;;;5088464;28;20531;-51
2021/01/29 00:06:19;;;;;;;1.25;0.82;;;21.60;40.30;;;;;;5083276;28;20032;-52
2021/01/29 00:08:45;;;;;;;1.98;0.95;;;21.60;40.30;;;;;;5086379;28;20016;-50
2021/01/29 00:11:10;;;;;;;1.15;0.80;;;21.50;40.30;;;;;;5082795;28;20058;-48
2021/01/29 00:13:36;;;;;;;1.85;0.80;;;21.50;40.30;;;;;;5073443;28;20024;-51
2021/01/29 00:16:02;;;;;;;1.48;0.80;;;21.50;40.30;;;;;;5073992;28;20028;-51
2021/01/29 00:18:27;;;;;;;0.90;0.40;;;21.50;40.30;;;;;;5074518;28;20028;-51
2021/01/29 00:20:53;;;;;;;1.45;0.50;;;21.40;40.20;;;;;;5072582;28;20393;-49
2021/01/29 00:23:20;;;;;;;1.20;0.60;;;21.50;40.30;;;;;;5071785;28;20036;-51
2021/01/29 00:25:49;;;;;;;0.80;0.50;;;21.40;40.20;;;;;;5072942;28;20032;-50
2021/01/29 00:28:15;;;;;;;5.68;0.68;;;21.40;40.30;;;;;;5080209;28;20124;-52
2021/01/29 00:30:41;;;;;;;1.17;0.65;;;21.40;40.30;;;;;;5083912;28;20556;-52
2021/01/29 00:33:09;;;;;;;1.02;0.40;;;21.40;40.30;;;;;;5085197;28;20111;-50
2021/01/29 00:35:36;;;;;;;0.95;0.57;;;21.30;40.30;;;;;;5084428;28;20043;-48
2021/01/29 00:38:03;;;;;;;1.30;0.57;;;21.30;40.30;;;;;;5083657;28;20066;-50
2021/01/29 00:40:29;;;;;;;2.30;0.70;;;21.30;40.30;;;;;;5086191;28;20538;-46
2021/01/29 00:42:55;;;;;;;1.15;0.40;;;21.30;40.30;;;;;;5084788;28;20106;-50
2021/01/29 00:45:24;;;;;;;2.30;0.70;;;21.30;40.30;;;;;;5086370;28;20382;-51
2021/01/29 00:47:49;;;;;;;0.80;0.57;;;21.30;40.40;;;;;;5081559;28;20455;-51
2021/01/29 00:50:15;;;;;;;1.15;0.50;;;21.20;40.30;;;;;;5084195;28;20016;-50
2021/01/29 00:52:41;;;;;;;1.15;0.50;;;21.20;40.30;;;;;;5085545;28;20035;-49
2021/01/29 00:55:08;;;;;;;1.13;0.50;;;21.20;40.30;;;;;;5086458;28;20050;-50
2021/01/29 00:57:34;;;;;;;1.15;0.40;;;21.20;40.30;;;;;;5084837;28;20036;-50
2021/01/29 00:59:59;;;;;;;1.60;0.40;;;21.20;40.40;;;;;;5085413;28;20050;-50
2021/01/29 01:02:25;;;;;;;0.95;0.45;;;21.20;40.30;;;;;;5084563;28;20547;-52
2021/01/29 01:04:50;;;;;;;1.08;0.50;;;21.20;40.40;;;;;;5089891;28;20056;-49
2021/01/29 01:07:16;;;;;;;1.02;0.40;;;21.10;40.30;;;;;;5086897;28;20100;-50
2021/01/29 01:09:43;;;;;;;0.98;0.50;;;21.10;40.40;;;;;;5088447;28;20024;-50
2021/01/29 01:12:09;;;;;;;1.20;0.65;;;21.10;40.40;;;;;;5086833;28;20063;-51
2021/01/29 01:14:34;;;;;;;1.00;0.60;;;21.10;40.30;;;;;;5086712;28;20067;-48
2021/01/29 01:17:00;;;;;;;1.15;0.40;;;21.10;40.40;;;;;;5081656;28;20046;-51
2021/01/29 01:19:26;;;;;;;0.88;0.40;;;21.10;40.40;;;;;;5083983;28;20040;-51
2021/01/29 01:21:51;;;;;;;1.23;0.50;;;21.00;40.30;;;;;;5085045;28;20142;-49
2021/01/29 01:24:17;;;;;;;1.10;0.60;;;21.00;40.30;;;;;;5084464;28;20633;-51
2021/01/29 01:26:43;;;;;;;1.35;0.50;;;21.00;40.30;;;;;;5084616;28;20044;-46
2021/01/29 01:29:08;;;;;;;1.40;0.60;;;21.00;40.40;;;;;;5082039;28;20485;-50
2021/01/29 01:31:34;;;;;;;1.17;0.50;;;21.00;40.40;;;;;;5085928;28;20040;-52
2021/01/29 01:34:00;;;;;;;1.23;0.57;;;21.00;40.30;;;;;;5086211;28;20093;-52
2021/01/29 01:36:25;;;;;;;1.20;0.60;;;21.00;40.30;;;;;;5083113;28;20070;-48
2021/01/29 01:38:51;;;;;;;1.17;0.60;;;21.00;40.30;;;;;;5086452;28;20469;-51
2021/01/29 01:41:17;;;;;;;0.70;0.30;;;21.00;40.40;;;;;;5084691;28;20039;-49
2021/01/29 01:43:42;;;;;;;0.73;0.40;;;20.90;40.30;;;;;;5085307;28;20073;-49
2021/01/29 01:46:12;;;;;;;2.58;0.60;;;20.90;40.30;;;;;;5082480;28;20063;-50
2021/01/29 01:49:06;;;;;;;2.88;0.77;;;20.90;40.30;;;;;;5087977;28;20016;-50
2021/01/29 01:52:03;;;;;;;1.63;0.40;;;20.90;40.30;;;;;;5089243;28;20034;-51
2021/01/29 01:54:44;;;;;;;0.90;0.45;;;20.90;40.30;;;;;;5078943;28;20090;-51
2021/01/29 01:57:14;;;;;;;0.95;0.40;;;20.90;40.80;;;;;;5088145;28;20035;-49
2021/01/29 01:59:43;;;;;;;1.20;0.60;;;20.90;40.40;;;;;;5088403;28;20127;-51
2021/01/29 02:02:13;;;;;;;2.00;0.60;;;20.90;40.90;;;;;;5083564;28;20361;-52
2021/01/29 02:04:43;;;;;;;1.60;0.63;;;20.80;40.40;;;;;;5088672;28;20476;-51
2021/01/29 02:07:22;;;;;;;1.85;0.52;;;20.80;40.30;;;;;;5085014;28;20043;-50
2021/01/29 02:09:49;;;;;;;1.35;0.40;;;20.80;40.30;;;;;;5084416;28;20081;-51
2021/01/29 02:12:18;;;;;;;1.17;0.55;;;20.80;40.30;;;;;;5087665;28;20028;-52
2021/01/29 02:14:43;;;;;;;2.60;0.65;;;20.80;40.30;;;;;;5102082;28;20051;-48
2021/01/29 02:17:36;;;;;;;0.85;0.40;;;20.80;40.30;;;;;;5087492;28;20131;-49
2021/01/29 02:20:16;;;;;;;1.98;0.52;;;20.80;40.30;;;;;;5088683;28;20040;-51
2021/01/29 02:23:00;;;;;;;2.17;0.60;;;20.80;40.40;;;;;;5088076;28;20089;-51
2021/01/29 02:25:56;;;;;;;1.15;0.85;;;20.80;40.30;;;;;;5086681;28;20036;-48
2021/01/29 02:28:47;;;;;;;0.93;0.57;;;20.80;40.40;;;;;;5088467;28;20051;-50
2021/01/29 02:31:38;;;;;;;1.25;0.50;;;20.70;40.30;;;;;;5088093;28;20074;-52
2021/01/29 02:34:18;;;;;;;1.65;0.63;;;20.70;40.30;;;;;;5088772;28;20831;-50
2021/01/29 02:37:25;;;;;;;1.25;0.45;;;20.70;40.30;;;;;;5085829;28;20371;-51
2021/01/29 02:40:19;;;;;;;1.10;0.50;;;20.70;40.20;;;;;;5068330;28;20628;-50
2021/01/29 02:43:03;;;;;;;1.13;0.52;;;20.70;40.30;;;;;;5088401;28;20050;-49
2021/01/29 02:45:42;;;;;;;0.95;0.32;;;20.70;40.30;;;;;;5087827;28;20032;-50
2021/01/29 02:48:35;;;;;;;1.33;0.52;;;20.70;40.30;;;;;;5087166;28;20385;-49
2021/01/29 02:51:14;;;;;;;1.95;0.40;;;20.70;40.30;;;;;;5085674;28;20139;-49
2021/01/29 02:54:00;;;;;;;2.70;0.60;;;20.60;40.30;;;;;;5085325;28;20488;-51
2021/01/29 02:56:48;;;;;;;1.88;0.57;;;20.60;40.40;;;;;;5085241;28;20560;-50
2021/01/29 02:59:32;;;;;;;2.30;0.50;;;20.60;40.30;;;;;;5080733;28;20024;-49
2021/01/29 03:02:03;;;;;;;0.50;0.20;;;20.60;40.30;;;;;;5086870;28;20072;-47
2021/01/29 03:04:39;;;;;;;1.00;0.30;;;20.60;40.30;;;;;;5084273;28;20082;-50
2021/01/29 03:07:23;;;;;;;0.95;0.52;;;20.60;40.40;;;;;;5082253;28;20298;-50
2021/01/29 03:09:58;;;;;;;0.95;0.30;;;20.60;40.40;;;;;;5087126;28;20401;-48
2021/01/29 03:12:31;;;;;;;0.90;0.40;;;20.60;40.90;;;;;;5088813;28;20028;-51
2021/01/29 03:15:15;;;;;;;1.20;0.50;;;20.60;40.40;;;;;;5087136;28;20042;-50
2021/01/29 03:17:49;;;;;;;1.10;0.43;;;20.60;40.50;;;;;;5085757;28;20048;-49
2021/01/29 03:20:31;;;;;;;1.23;0.55;;;20.60;40.50;;;;;;5086636;28;20030;-50
2021/01/29 03:23:05;;;;;;;0.93;0.77;;;20.60;40.40;;;;;;5087542;28;20061;-51
2021/01/29 03:25:34;;;;;;;1.02;0.50;;;20.60;40.40;;;;;;5088075;28;20377;-51
2021/01/29 03:28:06;;;;;;;0.95;0.60;;;20.50;40.40;;;;;;5086504;28;20035;-50
2021/01/29 03:30:35;;;;;;;0.85;0.50;;;20.50;40.40;;;;;;5084873;28;20493;-51
2021/01/29 03:33:02;;;;;;;0.70;0.40;;;20.50;40.40;;;;;;5085463;28;20035;-52
2021/01/29 03:35:43;;;;;;;1.63;0.52;;;20.50;40.30;;;;;;5086489;28;20040;-50
2021/01/29 03:38:18;;;;;;;0.93;0.35;;;20.50;40.40;;;;;;5082690;28;20431;-51
2021/01/29 03:40:46;;;;;;;2.20;0.40;;;20.50;40.40;;;;;;5087893;28;20043;-51
2021/01/29 03:43:25;;;;;;;1.00;0.60;;;20.50;40.40;;;;;;5081737;28;20596;-52
2021/01/29 03:46:04;;;;;;;0.80;0.60;;;20.50;40.40;;;;;;5084922;28;20058;-49
2021/01/29 03:49:07;;;;;;;1.30;0.50;;;20.50;40.40;;;;;;5084727;28;20032;-50
2021/01/29 03:52:10;;;;;;;1.20;0.45;;;20.40;40.40;;;;;;5083958;28;20027;-49
2021/01/29 03:55:18;;;;;;;1.10;0.40;;;20.40;40.40;;;;;;5075792;28;20047;-50
2021/01/29 03:58:07;;;;;;;1.10;0.50;;;20.40;40.40;;;;;;5082558;28;20024;-49
2021/01/29 04:00:38;;;;;;;1.45;0.32;;;20.40;40.50;;;;;;5083374;28;20024;-50
2021/01/29 04:03:34;;;;;;;1.15;0.35;;;20.40;40.50;;;;;;5085902;28;20036;-50
2021/01/29 04:06:15;;;;;;;1.23;0.40;;;20.40;40.40;;;;;;5082719;28;20187;-51
2021/01/29 04:09:02;;;;;;;0.93;0.30;;;20.40;40.50;;;;;;5084808;28;20039;-50
2021/01/29 04:11:33;;;;;;;0.68;0.40;;;20.40;40.40;;;;;;5085439;28;20069;-51
2021/01/29 04:14:04;;;;;;;1.48;0.50;;;20.40;40.50;;;;;;5085047;28;20508;-48
2021/01/29 04:16:39;;;;;;;1.20;0.63;;;20.40;40.50;;;;;;5082819;28;20123;-51
2021/01/29 04:19:12;;;;;;;1.05;0.40;;;20.30;40.50;;;;;;5084157;28;20032;-51
2021/01/29 04:21:45;;;;;;;1.50;0.32;;;20.30;40.50;;;;;;5084941;28;20051;-52
2021/01/29 04:24:17;;;;;;;1.10;0.35;;;20.30;40.50;;;;;;5085041;28;20032;-52
2021/01/29 04:26:52;;;;;;;1.13;0.40;;;20.30;40.50;;;;;;5087450;28;20393;-52
2021/01/29 04:29:24;;;;;;;1.42;0.20;;;20.30;40.50;;;;;;5084065;28;20032;-48
2021/01/29 04:31:55;;;;;;;0.85;0.35;;;20.30;40.50;;;;;;5086231;28;20036;-50
2021/01/29 04:34:26;;;;;;;0.82;0.50;;;20.30;40.50;;;;;;5085912;28;20489;-50
2021/01/29 04:36:56;;;;;;;0.60;0.30;;;20.30;40.40;;;;;;5083231;28;20115;-49
2021/01/29 04:39:46;;;;;;;0.65;0.35;;;20.30;40.50;;;;;;5084192;28;20056;-51
2021/01/29 04:42:46;;;;;;;0.93;0.40;;;20.30;40.50;;;;;;5086190;28;20081;-50
2021/01/29 04:45:32;;;;;;;0.95;0.30;;;20.30;40.40;;;;;;5081797;28;20170;-49
2021/01/29 04:48:16;;;;;;;0.95;0.50;;;20.30;40.50;;;;;;5082612;28;20016;-51
2021/01/29 04:51:15;;;;;;;0.57;0.35;;;20.30;40.60;;;;;;5085611;28;20028;-51
2021/01/29 04:54:03;;;;;;;1.25;0.30;;;20.30;40.40;;;;;;5085595;28;20028;-51
2021/01/29 04:56:46;;;;;;;1.00;0.40;;;20.20;40.40;;;;;;5086289;28;20034;-50
2021/01/29 04:59:29;;;;;;;1.40;0.40;;;20.30;40.50;;;;;;5083402;28;20047;-52
2021/01/29 05:02:28;;;;;;;1.08;0.30;;;20.30;40.60;;;;;;5083091;28;20233;-51
2021/01/29 05:05:22;;;;;;;1.65;0.55;;;20.20;40.50;;;;;;5086938;28;20080;-48
2021/01/29 05:08:39;;;;;;;0.80;0.43;;;20.20;40.50;;;;;;5081093;28;20445;-50
2021/01/29 05:11:26;;;;;;;0.77;0.43;;;20.20;40.50;;;;;;5083893;28;20524;-47
2021/01/29 05:13:59;;;;;;;0.70;0.38;;;20.20;40.50;;;;;;5087049;28;20020;-49
2021/01/29 05:16:34;;;;;;;0.60;0.20;;;20.20;40.50;;;;;;5084208;28;20060;-50
2021/01/29 05:19:23;;;;;;;0.98;0.30;;;20.20;40.50;;;;;;5083735;28;20032;-50
2021/01/29 05:21:55;;;;;;;1.00;0.30;;;20.20;40.50;;;;;;5083581;28;20073;-49
2021/01/29 05:24:41;;;;;;;1.13;0.40;;;20.20;40.50;;;;;;5086782;28;20447;-51
2021/01/29 05:27:13;;;;;;;0.60;0.30;;;20.20;40.50;;;;;;5089483;28;20403;-50
2021/01/29 05:30:06;;;;;;;1.17;0.30;;;20.20;40.50;;;;;;5088380;28;20074;-49
2021/01/29 05:32:57;;;;;;;1.15;0.20;;;20.20;40.50;;;;;;5087985;28;20043;-48
2021/01/29 05:35:44;;;;;;;1.08;0.52;;;20.20;40.50;;;;;;5085773;28;20043;-48
2021/01/29 05:38:34;;;;;;;1.00;0.43;;;20.20;40.50;;;;;;5089911;28;20028;-50
2021/01/29 05:41:39;;;;;;;1.13;0.50;;;20.20;40.50;;;;;;5087970;28;20137;-50
2021/01/29 05:44:37;;;;;;;1.05;0.30;;;20.20;40.30;;;;;;5089085;28;20424;-51
2021/01/29 05:47:39;;;;;;;0.75;0.20;;;20.20;40.50;;;;;;5057489;28;20123;-49
2021/01/29 05:50:26;;;;;;;0.50;0.20;;;20.20;40.50;;;;;;5090154;28;20035;-51
2021/01/29 05:53:21;;;;;;;0.60;0.20;;;20.10;40.40;;;;;;5089228;28;20040;-50
2021/01/29 05:56:07;;;;;;;0.50;0.30;;;20.10;40.40;;;;;;5090607;28;20106;-50
2021/01/29 05:58:42;;;;;;;1.25;0.32;;;20.10;40.40;;;;;;5088075;28;20032;-48
2021/01/29 06:01:27;;;;;;;0.47;0.20;;;20.10;40.40;;;;;;5093895;28;20067;-50
2021/01/29 06:04:29;;;;;;;0.73;0.38;;;20.10;40.40;;;;;;5096814;28;20063;-51
2021/01/29 06:07:33;;;;;;;0.98;0.30;;;20.10;40.50;;;;;;5095608;28;20024;-50
2021/01/29 06:10:37;;;;;;;0.80;0.30;;;20.10;40.50;;;;;;5079012;28;20101;-50
2021/01/29 06:13:41;;;;;;;0.60;0.17;;;20.10;40.60;;;;;;5088301;28;20103;-46
2021/01/29 06:16:24;;;;;;;0.80;0.20;;;20.10;40.50;;;;;;5038441;28;20083;-51
2021/01/29 06:19:26;;;;;;;0.40;0.20;;;20.10;40.50;;;;;;5084591;28;20119;-48
2021/01/29 06:22:11;;;;;;;0.68;0.20;;;20.00;40.50;;;;;;5088635;28;20493;-51
2021/01/29 06:24:59;;;;;;;1.33;0.35;;;20.00;40.40;;;;;;5089349;28;20078;-49
2021/01/29 06:27:47;;;;;;;0.65;0.20;;;20.10;40.50;;;;;;5089329;28;20043;-51
2021/01/29 06:30:49;;;;;;;0.40;0.10;;;20.10;40.60;;;;;;5088986;28;20105;-51
2021/01/29 06:33:53;;;;;;;1.27;0.20;;;20.10;40.60;;;;;;5088514;28;20500;-50
2021/01/29 06:36:25;;;;;;;0.50;0.20;;;20.00;40.50;;;;;;5085769;28;20093;-46
2021/01/29 06:39:10;;;;;;;0.57;0.20;;;20.10;40.60;;;;;;5086576;28;20032;-48
2021/01/29 06:42:00;;;;;;;0.40;0.20;;;20.00;40.50;;;;;;5086983;28;20040;-50
2021/01/29 06:45:03;;;;;;;0.43;0.10;;;20.00;40.60;;;;;;5089384;28;20093;-50
2021/01/29 06:48:16;;;;;;;0.50;0.20;;;20.00;40.70;;;;;;5084135;28;20069;-50
2021/01/29 06:51:04;;;;;;;0.60;0.10;;;20.20;40.50;;;;;;5088069;28;20105;-50
2021/01/29 06:53:56;;;;;;;0.77;0.10;;;20.30;40.20;;;;;;5075385;28;20040;-53
2021/01/29 06:56:31;;;;;;;0.43;0.13;;;20.60;39.90;;;;;;5085460;28;20686;-50
2021/01/29 06:59:27;;;;;;;0.60;0.10;;;20.70;39.70;;;;;;5085559;28;20066;-51
2021/01/29 07:02:10;;;;;;;0.60;0.20;;;20.80;39.50;;;;;;5086316;28;20449;-52
2021/01/29 07:04:45;;;;;;;0.40;0.10;;;20.90;39.40;;;;;;5085665;28;20047;-50
2021/01/29 07:07:48;;;;;;;0.22;0.10;;;20.90;39.30;;;;;;5084117;28;20040;-52
2021/01/29 07:10:31;;;;;;;0.40;0.20;;;21.00;39.30;;;;;;5085344;28;20111;-47
2021/01/29 07:13:11;;;;;;;0.70;0.10;;;21.00;39.30;;;;;;5088271;28;20055;-49
2021/01/29 07:16:13;;;;;;;0.20;0.10;;;21.00;39.40;;;;;;5084695;28;20035;-52
2021/01/29 07:19:20;;;;;;;0.52;0.10;;;21.00;39.60;;;;;;5085397;28;20044;-50
2021/01/29 07:22:17;;;;;;;0.25;0.10;;;21.00;39.50;;;;;;5085959;28;20047;-51
2021/01/29 07:24:58;;;;;;;0.85;0.20;;;21.10;39.50;;;;;;5085574;28;20031;-50
2021/01/29 07:27:39;;;;;;;0.30;0.10;;;21.10;39.50;;;;;;5084464;28;20111;-49
2021/01/29 07:30:42;;;;;;;0.52;0.10;;;21.20;39.50;;;;;;5086125;28;20039;-50
2021/01/29 07:33:19;;;;;;;1.33;0.30;;;21.20;39.50;;;;;;5085555;28;20042;-50
2021/01/29 07:36:07;;;;;;;0.45;0.13;;;21.30;39.50;;;;;;5085220;28;20103;-52
2021/01/29 07:38:50;;;;;;;0.80;0.10;;;21.30;39.40;;;;;;5085302;28;20032;-51
2021/01/29 07:41:54;;;;;;;0.32;0.20;;;21.30;39.50;;;;;;5086510;28;20063;-51
2021/01/29 07:44:30;;;;;;;0.52;0.10;;;21.30;39.50;;;;;;5087715;28;20053;-50
2021/01/29 07:47:13;;;;;;;0.43;0.10;;;21.30;39.60;;;;;;5082042;28;20519;-44
2021/01/29 07:50:04;;;;;;;2.00;0.10;;;21.30;39.80;;;;;;5087487;28;20594;-49
2021/01/29 07:52:52;;;;;;;0.82;0.20;;;21.20;39.80;;;;;;5079287;28;20631;-48
2021/01/29 07:55:28;;;;;;;0.40;0.17;;;21.20;40.00;;;;;;5085385;28;20040;-48
2021/01/29 07:58:42;;;;;;;0.47;0.10;;;21.20;40.00;;;;;;5086893;28;20089;-49
2021/01/29 08:01:35;;;;;;;0.20;0.10;;;21.20;40.00;;;;;;5045282;28;20174;-50
2021/01/29 08:04:23;;;;;;;2.88;0.10;;;21.10;40.10;;;;;;5082907;28;20029;-48
2021/01/29 08:06:53;;;;;;;0.30;0.10;;;21.20;40.30;;;;;;5081058;28;20118;-49
2021/01/29 08:09:40;;;;;;;1.02;0.10;;;21.20;40.40;;;;;;5084052;28;20052;-46
2021/01/29 08:12:11;;;;;;;0.30;0.10;;;21.20;41.00;;;;;;5085259;28;20035;-48
2021/01/29 08:15:06;;;;;;;;;;;21.20;40.50;;;;;;5084501;28;20088;-48
2021/01/29 08:17:49;;;;;;;0.45;0.10;;;21.10;40.80;;;;;;5029000;28;20297;-47
2021/01/29 08:20:29;;;;;;;0.40;0.10;;;21.20;40.70;;;;;;5084731;28;20099;-47
2021/01/29 08:23:16;;;;;;;0.35;0.10;;;21.00;41.00;;;;;;5082105;28;20036;-48
2021/01/29 08:26:19;;;;;;;0.30;0.10;;;21.00;41.10;;;;;;5083905;28;20016;-48
2021/01/29 08:29:02;;;;;;;0.40;0.00;;;21.00;40.90;;;;;;5080558;28;20069;-45
2021/01/29 08:31:42;;;;;;;1.30;0.00;;;21.00;41.00;;;;;;5077157;28;20028;-45
2021/01/29 08:34:18;;;;;;;0.93;0.10;;;21.00;41.10;;;;;;5086392;28;20043;-45
2021/01/29 08:37:08;;;;;;;1.40;0.22;;;21.00;41.10;;;;;;5086524;28;20495;-46
2021/01/29 08:39:51;;;;;;;0.43;0.10;;;21.00;41.30;;;;;;5084063;28;20084;-45
2021/01/29 08:42:42;;;;;;;2.58;0.10;;;21.10;41.40;;;;;;5088767;28;20055;-51
2021/01/29 08:45:48;;;;;;;0.80;0.10;;;21.20;41.40;;;;;;5085750;28;20042;-47
2021/01/29 08:48:33;;;;;;;1.92;0.05;;;21.20;41.20;;;;;;5082751;28;20129;-47
2021/01/29 08:51:28;;;;;;;0.93;0.10;;;21.30;41.20;;;;;;5076834;28;20028;-49
2021/01/29 08:54:45;;;;;;;1.17;0.10;;;21.50;41.00;;;;;;5084896;28;20024;-49
2021/01/29 08:57:28;;;;;;;0.22;0.03;;;21.60;40.80;;;;;;5060310;28;20119;-46
2021/01/29 08:59:58;;;;;;;0.30;0.10;;;21.70;40.70;;;;;;5082206;28;20024;-50
2021/01/29 09:02:51;;;;;;;0.20;0.00;;;21.80;40.70;;;;;;5083972;28;20731;-48
2021/01/29 09:05:22;;;;;;;0.40;0.10;;;21.90;40.60;;;;;;5085164;28;20035;-49
2021/01/29 09:07:56;;;;;;;0.23;0.10;;;21.90;40.60;;;;;;5084306;28;20024;-45
2021/01/29 09:10:49;;;;;;;0.28;0.00;;;21.90;40.70;;;;;;5085318;28;20317;-49
2021/01/29 09:13:22;;;;;;;0.38;0.10;;;21.90;40.70;;;;;;5087373;28;20034;-51
2021/01/29 09:16:22;;;;;;;0.50;0.10;;;22.00;40.80;;;;;;5084309;28;20035;-48
2021/01/29 09:19:17;;;;;;;0.38;0.20;;;22.00;40.80;;;;;;5084487;28;20020;-44
2021/01/29 09:22:14;;;;;;;3.25;0.20;;;22.00;40.70;;;;;;5084897;28;20562;-48
2021/01/29 09:24:40;;;;;;;0.88;0.10;;;22.00;40.70;;;;;;5086787;28;20040;-49
2021/01/29 09:27:05;;;;;;;0.35;0.10;;;22.00;40.80;;;;;;5087701;28;20809;-47
2021/01/29 09:29:39;;;;;;;0.50;0.10;;;22.00;40.90;;;;;;5067542;28;20051;-45
2021/01/29 09:32:13;;;;;;;0.60;0.10;;;22.00;40.90;;;;;;5085156;28;20035;-48
2021/01/29 09:34:43;;;;;;;1.35;0.20;;;22.00;40.90;;;;;;5084639;28;20166;-48
2021/01/29 09:37:14;;;;;;;0.82;0.20;;;22.00;41.00;;;;;;5084876;28;20047;-47
2021/01/29 09:39:55;;;;;;;0.40;0.10;;;21.90;40.90;;;;;;5082628;28;20028;-49
2021/01/29 09:43:10;;;;;;;0.77;0.13;;;21.90;41.20;;;;;;5084832;28;20143;-49
2021/01/29 09:45:39;;;;;;;0.70;0.10;;;21.80;41.30;;;;;;5084303;28;20016;-49
2021/01/29 09:48:07;;;;;;;1.08;0.20;;;21.80;41.30;;;;;;5077891;28;20024;-47
2021/01/29 09:50:34;;;;;;;0.98;0.22;;;21.70;41.20;;;;;;5075864;28;20040;-50
2021/01/29 09:53:05;;;;;;;1.33;0.17;;;21.70;41.40;;;;;;5078578;28;20119;-49
2021/01/29 09:55:49;;;;;;;1.20;0.20;;;21.70;41.60;;;;;;5084256;28;20496;-49
2021/01/29 09:58:15;;;;;;;2.30;0.10;;;21.70;41.40;;;;;;5083656;28;20033;-49
2021/01/29 10:00:45;;;;;;;1.38;0.20;;;21.70;41.30;;;;;;5069654;28;20059;-46
2021/01/29 10:03:25;;;;;;;0.63;0.20;;;21.70;41.30;;;;;;5082748;28;20289;-45
2021/01/29 10:06:04;;;;;;;0.63;0.17;;;21.70;41.40;;;;;;5082820;28;20058;-47
2021/01/29 10:08:35;;;;;;;0.73;0.25;;;21.70;41.40;;;;;;5078506;28;20030;-46
2021/01/29 10:11:10;;;;;;;0.93;0.30;;;21.60;41.50;;;;;;5085828;28;20032;-50
2021/01/29 10:13:44;;;;;;;2.70;0.20;;;21.70;41.70;;;;;;5087842;28;20035;-48
2021/01/29 10:16:36;;;;;;;0.75;0.20;;;21.60;41.60;;;;;;5087070;28;20093;-51
2021/01/29 10:19:08;;;;;;;1.67;0.32;;;21.60;41.70;;;;;;5087138;28;20059;-51
2021/01/29 10:21:58;;;;;;;1.67;0.10;;;21.60;41.90;;;;;;5085446;28;20024;-49
2021/01/29 10:24:27;;;;;;;1.17;0.40;;;21.50;41.90;;;;;;5087043;28;20872;-51
2021/01/29 10:27:18;;;;;;;1.42;0.40;;;21.50;41.80;;;;;;5088215;28;20028;-54
2021/01/29 10:29:47;;;;;;;2.40;0.43;;;21.50;41.90;;;;;;5069233;28;20134;-53
2021/01/29 10:32:22;;;;;;;1.33;0.28;;;21.50;41.90;;;;;;5088947;28;20532;-53
2021/01/29 10:35:09;;;;;;;3.20;0.30;;;21.50;42.10;;;;;;5089148;28;20115;-48
2021/01/29 10:37:53;;;;;;;1.65;0.40;;;21.40;41.90;;;;;;5086987;28;20042;-48
2021/01/29 10:40:38;;;;;;;1.98;0.30;;;21.50;42.00;;;;;;5085387;28;20031;-49
2021/01/29 10:43:37;;;;;;;2.33;0.55;;;21.50;42.00;;;;;;5085881;28;20024;-46
2021/01/29 10:46:36;;;;;;;1.35;0.20;;;21.50;42.00;;;;;;5090505;28;20012;-50
2021/01/29 10:49:23;;;;;;;1.15;0.30;;;21.50;42.00;;;;;;5087836;28;20015;-49
2021/01/29 10:52:21;;;;;;;3.65;0.60;;;21.60;41.90;;;;;;5085915;28;20107;-46
2021/01/29 10:54:48;;;;;;;1.80;0.28;;;21.70;41.80;;;;;;5078478;28;20519;-50
2021/01/29 10:57:39;;;;;;;1.42;0.20;;;21.80;41.40;;;;;;5091725;28;20058;-52
2021/01/29 11:00:15;;;;;;;1.20;0.20;;;22.00;41.10;;;;;;5090086;28;20111;-49
2021/01/29 11:02:46;;;;;;;3.13;0.55;;;22.00;41.20;;;;;;5095640;28;20040;-51
2021/01/29 11:05:25;;;;;;;1.80;0.30;;;22.10;41.10;;;;;;5095896;28;20035;-50
2021/01/29 11:08:00;;;;;;;1.23;0.47;;;22.20;40.90;;;;;;5097673;28;20107;-50
2021/01/29 11:10:33;;;;;;;1.88;0.30;;;22.30;40.80;;;;;;5084948;28;20036;-51
2021/01/29 11:13:10;;;;;;;1.60;0.40;;;22.30;40.80;;;;;;5087302;28;20370;-48
2021/01/29 11:15:46;;;;;;;1.45;0.30;;;22.30;40.80;;;;;;5083302;28;20042;-46
2021/01/29 11:18:23;;;;;;;1.73;0.40;;;22.40;41.00;;;;;;5085027;28;20032;-51
2021/01/29 11:20:49;;;;;;;2.63;0.20;;;22.40;41.00;;;;;;5086370;28;20511;-51
2021/01/29 11:23:21;;;;;;;3.03;0.50;;;22.40;41.00;;;;;;5087111;28;20071;-51
2021/01/29 11:25:49;;;;;;;1.33;0.32;;;22.50;41.00;;;;;;5086377;28;20056;-47
2021/01/29 11:29:01;;;;;;;2.85;0.35;;;22.50;41.00;;;;;;5085549;28;20063;-49
2021/01/29 11:31:35;;;;;;;1.00;0.28;;;22.50;41.20;;;;;;5084565;28;20024;-48
2021/01/29 11:34:02;;;;;;;2.15;0.45;;;22.50;41.20;;;;;;5086975;28;20028;-48
2021/01/29 11:36:37;;;;;;;1.15;0.32;;;22.40;41.30;;;;;;5085908;28;20036;-50
2021/01/29 11:39:35;;;;;;;1.23;0.30;;;22.40;41.40;;;;;;5083364;28;20032;-49
2021/01/29 11:42:18;;;;;;;0.95;0.30;;;22.40;41.40;;;;;;5084748;28;20051;-49
2021/01/29 11:45:02;;;;;;;1.63;0.50;;;22.30;41.40;;;;;;5085672;28;20032;-49
2021/01/29 11:47:41;;;;;;;0.98;0.25;;;22.30;41.50;;;;;;5086266;28;20073;-48
2021/01/29 11:50:27;;;;;;;2.83;0.25;;;22.30;41.70;;;;;;5086488;28;20107;-51
2021/01/29 11:53:25;;;;;;;4.35;0.43;;;22.20;41.70;;;;;;5084300;28;20063;-48
2021/01/29 11:56:06;;;;;;;1.80;0.30;;;22.20;41.50;;;;;;5077173;28;20114;-46
2021/01/29 11:58:44;;;;;;;3.65;0.75;;;22.20;41.70;;;;;;5079826;28;21015;-47
2021/01/29 12:01:24;;;;;;;1.63;0.30;;;22.10;41.70;;;;;;5081372;28;20024;-54
2021/01/29 12:04:17;;;;;;;2.05;0.50;;;22.10;41.60;;;;;;5086120;28;20020;-50
2021/01/29 12:06:58;;;;;;;2.13;0.32;;;22.10;41.50;;;;;;5083727;28;20028;-53
2021/01/29 12:09:45;;;;;;;2.33;0.40;;;22.10;41.50;;;;;;5084617;28;20074;-52
2021/01/29 12:12:22;;;;;;;2.20;0.30;;;22.10;41.50;;;;;;5085130;28;20036;-50
2021/01/29 12:15:09;;;;;;;2.33;0.60;;;22.10;41.60;;;;;;5084758;28;20091;-49
2021/01/29 12:17:35;;;;;;;1.90;0.45;;;22.10;41.60;;;;;;5082688;28;20032;-51
2021/01/29 12:20:08;;;;;;;3.47;0.38;;;22.10;41.70;;;;;;5086291;28;20565;-53
2021/01/29 12:22:42;;;;;;;2.70;0.60;;;22.10;41.70;;;;;;5085153;28;20492;-49
2021/01/29 12:25:44;;;;;;;2.28;0.30;;;22.00;41.80;;;;;;5080282;28;20024;-50
2021/01/29 12:28:33;;;;;;;3.50;0.40;;;22.00;42.00;;;;;;5080514;28;20027;-48
2021/01/29 12:31:57;;;;;;;3.92;0.50;;;21.90;42.00;;;;;;5082235;28;20050;-50
2021/01/29 12:34:34;;;;;;;1.92;0.45;;;21.90;42.00;;;;;;5048186;28;20036;-48
2021/01/29 12:37:11;;;;;;;2.30;0.38;;;21.90;42.10;;;;;;5079114;28;20092;-49
2021/01/29 12:39:42;;;;;;;1.88;0.38;;;21.80;42.40;;;;;;5084438;28;20028;-51
2021/01/29 12:42:24;;;;;;;3.50;0.45;;;21.80;42.10;;;;;;5085865;28;20114;-50
2021/01/29 12:45:01;;;;;;;1.73;0.47;;;21.80;42.30;;;;;;5087035;28;20032;-49
2021/01/29 12:48:05;;;;;;;1.20;0.50;;;21.80;42.30;;;;;;5082551;28;20370;-53
2021/01/29 12:50:56;;;;;;;1.98;0.40;;;21.80;42.50;;;;;;5059774;28;20041;-48
2021/01/29 12:54:06;;;;;;;3.25;0.40;;;21.90;42.20;;;;;;5077832;28;20090;-44
2021/01/29 12:56:37;;;;;;;2.45;0.40;;;21.70;42.20;;;;;;5052572;28;20059;-48
2021/01/29 12:59:06;;;;;;;0.77;0.10;;;21.70;42.40;;;;;;5079758;28;20048;-50
2021/01/29 13:01:34;;;;;;;1.15;0.20;;;21.70;42.30;;;;;;5079752;28;20027;-49
2021/01/29 13:04:39;;;;;;;1.17;0.40;;;21.80;42.30;;;;;;5084984;28;20092;-50
2021/01/29 13:07:27;;;;;;;1.83;0.30;;;22.00;41.90;;;;;;5084634;28;20046;-50
2021/01/29 13:10:24;;;;;;;1.80;0.28;;;22.20;41.70;;;;;;5084110;28;20103;-50
2021/01/29 13:13:15;;;;;;;1.40;0.47;;;22.30;41.60;;;;;;5084562;28;20024;-50
2021/01/29 13:16:09;;;;;;;3.45;0.30;;;22.40;41.50;;;;;;5086037;28;20492;-49
2021/01/29 13:18:54;;;;;;;0.75;0.20;;;22.50;41.30;;;;;;5084080;28;20036;-48
2021/01/29 13:21:35;;;;;;;1.55;0.22;;;22.60;41.10;;;;;;5086644;28;20039;-45
2021/01/29 13:24:05;;;;;;;1.80;0.32;;;22.60;41.20;;;;;;5085480;28;20024;-47
2021/01/29 13:26:40;;;;;;;1.23;0.30;;;22.60;41.20;;;;;;5084419;28;20059;-49
2021/01/29 13:29:22;;;;;;;1.23;0.40;;;22.70;41.20;;;;;;5085968;28;20071;-43
2021/01/29 13:31:48;;;;;;;0.85;0.20;;;22.70;41.20;;;;;;5086875;28;20103;-43
2021/01/29 13:34:38;;;;;;;1.38;0.38;;;22.80;41.20;;;;;;5084293;28;20024;-46
2021/01/29 13:37:13;;;;;;;3.00;0.20;;;22.80;41.20;;;;;;5084245;28;20032;-47
2021/01/29 13:39:41;;;;;;;1.02;0.20;;;22.70;41.20;;;;;;5087551;28;20066;-48
2021/01/29 13:42:26;;;;;;;1.38;0.35;;;22.70;41.20;;;;;;5086156;28;20118;-49
2021/01/29 13:44:57;;;;;;;2.00;0.35;;;22.80;41.30;;;;;;5086649;28;20016;-49
2021/01/29 13:47:27;;;;;;;1.08;0.20;;;22.80;41.30;;;;;;5087321;28;20073;-50
2021/01/29 13:49:54;;;;;;;1.55;0.40;;;22.80;41.30;;;;;;5086669;28;20557;-50
2021/01/29 13:52:31;;;;;;;2.05;0.40;;;22.80;41.30;;;;;;5086778;28;20039;-49
2021/01/29 13:55:10;;;;;;;2.05;0.38;;;22.80;41.30;;;;;;5088576;28;20570;-48
2021/01/29 13:57:43;;;;;;;2.72;0.30;;;22.70;41.60;;;;;;5089232;28;20055;-48
2021/01/29 14:00:15;;;;;;;3.08;0.30;;;22.70;41.60;;;;;;5088842;28;20028;-49